sensor_id;sensor_type;location;lat;lon;timestamp;P1;durP1;ratioP1;P2;durP2;ratioP2
64543;SDS011;50936;51.660;5.616;2023-07-09T00:02:16;7.55;;;3.97;;
64543;SDS011;50936;51.660;5.616;2023-07-09T00:04:44;6.70;;;4.03;;
64543;SDS011;50936;51.660;5.616;2023-07-09T00:07:18;6.15;;;3.40;;
64543;SDS011;50936;51.660;5.616;2023-07-09T00:09:55;6.65;;;3.50;;
64543;SDS011;50936;51.660;5.616;2023-07-09T00:12:24;5.25;;;3.38;;
64543;SDS011;50936;51.660;5.616;2023-07-09T00:14:52;6.78;;;3.70;;
64543;SDS011;50936;51.660;5.616;2023-07-09T00:19:57;7.18;;;4.10;;
64543;SDS011;50936;51.660;5.616;2023-07-09T00:22:24;7.78;;;4.30;;
64543;SDS011;50936;51.660;5.616;2023-07-09T00:24:53;7.55;;;4.00;;
64543;SDS011;50936;51.660;5.616;2023-07-09T00:27:25;7.35;;;4.05;;
64543;SDS011;50936;51.660;5.616;2023-07-09T00:29:57;6.20;;;3.95;;
64543;SDS011;50936;51.660;5.616;2023-07-09T00:32:24;7.07;;;4.07;;
64543;SDS011;50936;51.660;5.616;2023-07-09T00:34:51;7.80;;;3.88;;
64543;SDS011;50936;51.660;5.616;2023-07-09T00:37:21;6.78;;;4.22;;
64543;SDS011;50936;51.660;5.616;2023-07-09T00:39:55;6.55;;;3.70;;
64543;SDS011;50936;51.660;5.616;2023-07-09T00:42:22;6.43;;;3.60;;
64543;SDS011;50936;51.660;5.616;2023-07-09T00:44:51;7.40;;;4.00;;
64543;SDS011;50936;51.660;5.616;2023-07-09T00:47:22;5.57;;;3.50;;
64543;SDS011;50936;51.660;5.616;2023-07-09T00:50:38;6.68;;;3.90;;
64543;SDS011;50936;51.660;5.616;2023-07-09T00:53:04;6.32;;;3.67;;
64543;SDS011;50936;51.660;5.616;2023-07-09T00:55:46;7.95;;;3.92;;
64543;SDS011;50936;51.660;5.616;2023-07-09T00:58:28;6.57;;;4.25;;
64543;SDS011;50936;51.660;5.616;2023-07-09T01:01:00;6.82;;;3.80;;
64543;SDS011;50936;51.660;5.616;2023-07-09T01:03:35;7.15;;;4.13;;
64543;SDS011;50936;51.660;5.616;2023-07-09T01:06:33;6.57;;;3.72;;
64543;SDS011;50936;51.660;5.616;2023-07-09T01:09:07;6.80;;;3.85;;
64543;SDS011;50936;51.660;5.616;2023-07-09T01:11:34;8.13;;;4.10;;
64543;SDS011;50936;51.660;5.616;2023-07-09T01:14:04;6.45;;;4.10;;
64543;SDS011;50936;51.660;5.616;2023-07-09T01:16:36;6.68;;;3.85;;
64543;SDS011;50936;51.660;5.616;2023-07-09T01:19:09;7.13;;;3.95;;
64543;SDS011;50936;51.660;5.616;2023-07-09T01:21:40;5.95;;;3.53;;
64543;SDS011;50936;51.660;5.616;2023-07-09T01:24:14;7.38;;;4.40;;
64543;SDS011;50936;51.660;5.616;2023-07-09T01:27:13;8.15;;;3.80;;
64543;SDS011;50936;51.660;5.616;2023-07-09T01:29:41;8.02;;;3.90;;
64543;SDS011;50936;51.660;5.616;2023-07-09T01:32:16;6.70;;;3.97;;
64543;SDS011;50936;51.660;5.616;2023-07-09T01:34:49;6.85;;;3.80;;
64543;SDS011;50936;51.660;5.616;2023-07-09T01:37:23;7.43;;;4.45;;
64543;SDS011;50936;51.660;5.616;2023-07-09T01:39:53;6.85;;;4.00;;
64543;SDS011;50936;51.660;5.616;2023-07-09T01:42:21;6.68;;;3.80;;
64543;SDS011;50936;51.660;5.616;2023-07-09T01:44:52;7.05;;;4.03;;
64543;SDS011;50936;51.660;5.616;2023-07-09T01:47:20;6.10;;;3.83;;
64543;SDS011;50936;51.660;5.616;2023-07-09T01:49:51;6.63;;;3.97;;
64543;SDS011;50936;51.660;5.616;2023-07-09T01:52:24;5.93;;;4.00;;
64543;SDS011;50936;51.660;5.616;2023-07-09T01:54:56;8.48;;;4.30;;
64543;SDS011;50936;51.660;5.616;2023-07-09T01:57:24;5.95;;;3.88;;
64543;SDS011;50936;51.660;5.616;2023-07-09T02:00:01;6.68;;;4.20;;
64543;SDS011;50936;51.660;5.616;2023-07-09T02:02:40;6.50;;;3.90;;
64543;SDS011;50936;51.660;5.616;2023-07-09T02:05:10;8.50;;;4.07;;
64543;SDS011;50936;51.660;5.616;2023-07-09T02:07:40;6.47;;;4.18;;
64543;SDS011;50936;51.660;5.616;2023-07-09T02:10:08;7.05;;;4.13;;
64543;SDS011;50936;51.660;5.616;2023-07-09T02:12:37;6.95;;;4.38;;
64543;SDS011;50936;51.660;5.616;2023-07-09T02:15:04;6.32;;;3.90;;
64543;SDS011;50936;51.660;5.616;2023-07-09T02:17:32;6.32;;;4.10;;
64543;SDS011;50936;51.660;5.616;2023-07-09T02:19:59;7.28;;;4.38;;
64543;SDS011;50936;51.660;5.616;2023-07-09T02:22:26;7.35;;;4.30;;
64543;SDS011;50936;51.660;5.616;2023-07-09T02:24:53;6.65;;;4.05;;
64543;SDS011;50936;51.660;5.616;2023-07-09T02:27:20;8.40;;;4.40;;
64543;SDS011;50936;51.660;5.616;2023-07-09T02:29:48;6.13;;;4.07;;
64543;SDS011;50936;51.660;5.616;2023-07-09T02:32:26;7.13;;;4.35;;
64543;SDS011;50936;51.660;5.616;2023-07-09T02:34:54;7.20;;;4.05;;
64543;SDS011;50936;51.660;5.616;2023-07-09T02:37:25;6.15;;;4.32;;
64543;SDS011;50936;51.660;5.616;2023-07-09T02:39:53;7.05;;;4.20;;
64543;SDS011;50936;51.660;5.616;2023-07-09T02:42:21;6.78;;;4.35;;
64543;SDS011;50936;51.660;5.616;2023-07-09T02:44:49;6.18;;;4.22;;
64543;SDS011;50936;51.660;5.616;2023-07-09T02:47:17;7.10;;;4.38;;
64543;SDS011;50936;51.660;5.616;2023-07-09T02:49:47;6.88;;;4.30;;
64543;SDS011;50936;51.660;5.616;2023-07-09T02:52:15;6.55;;;4.03;;
64543;SDS011;50936;51.660;5.616;2023-07-09T02:54:42;6.95;;;4.03;;
64543;SDS011;50936;51.660;5.616;2023-07-09T02:57:09;6.25;;;4.20;;
64543;SDS011;50936;51.660;5.616;2023-07-09T02:59:36;6.75;;;4.18;;
64543;SDS011;50936;51.660;5.616;2023-07-09T03:02:03;7.60;;;4.10;;
64543;SDS011;50936;51.660;5.616;2023-07-09T03:04:30;6.35;;;4.07;;
64543;SDS011;50936;51.660;5.616;2023-07-09T03:06:58;7.20;;;4.30;;
64543;SDS011;50936;51.660;5.616;2023-07-09T03:09:26;7.10;;;4.07;;
64543;SDS011;50936;51.660;5.616;2023-07-09T03:11:54;6.57;;;4.15;;
64543;SDS011;50936;51.660;5.616;2023-07-09T03:14:22;6.70;;;4.32;;
64543;SDS011;50936;51.660;5.616;2023-07-09T03:16:49;7.20;;;4.60;;
64543;SDS011;50936;51.660;5.616;2023-07-09T03:19:16;5.97;;;4.05;;
64543;SDS011;50936;51.660;5.616;2023-07-09T03:21:44;6.00;;;3.80;;
64543;SDS011;50936;51.660;5.616;2023-07-09T03:24:11;6.32;;;4.05;;
64543;SDS011;50936;51.660;5.616;2023-07-09T03:26:45;7.60;;;4.65;;
64543;SDS011;50936;51.660;5.616;2023-07-09T03:29:13;6.40;;;4.43;;
64543;SDS011;50936;51.660;5.616;2023-07-09T03:31:41;8.23;;;4.40;;
64543;SDS011;50936;51.660;5.616;2023-07-09T03:34:08;6.72;;;4.38;;
64543;SDS011;50936;51.660;5.616;2023-07-09T03:36:35;8.13;;;4.32;;
64543;SDS011;50936;51.660;5.616;2023-07-09T03:39:04;7.22;;;4.22;;
64543;SDS011;50936;51.660;5.616;2023-07-09T03:41:32;6.13;;;3.92;;
64543;SDS011;50936;51.660;5.616;2023-07-09T03:44:00;6.45;;;4.20;;
64543;SDS011;50936;51.660;5.616;2023-07-09T03:46:27;6.22;;;4.13;;
64543;SDS011;50936;51.660;5.616;2023-07-09T03:48:54;5.80;;;3.88;;
64543;SDS011;50936;51.660;5.616;2023-07-09T03:51:21;7.68;;;4.38;;
64543;SDS011;50936;51.660;5.616;2023-07-09T03:53:48;6.90;;;3.97;;
64543;SDS011;50936;51.660;5.616;2023-07-09T03:56:15;8.07;;;4.18;;
64543;SDS011;50936;51.660;5.616;2023-07-09T03:58:42;5.38;;;3.40;;
64543;SDS011;50936;51.660;5.616;2023-07-09T04:01:09;7.43;;;3.40;;
64543;SDS011;50936;51.660;5.616;2023-07-09T04:03:36;5.57;;;3.83;;
64543;SDS011;50936;51.660;5.616;2023-07-09T04:06:03;6.03;;;3.70;;
64543;SDS011;50936;51.660;5.616;2023-07-09T04:08:30;6.05;;;3.63;;
64543;SDS011;50936;51.660;5.616;2023-07-09T04:11:00;6.95;;;3.70;;
64543;SDS011;50936;51.660;5.616;2023-07-09T04:13:29;6.10;;;3.33;;
64543;SDS011;50936;51.660;5.616;2023-07-09T04:15:56;4.82;;;3.50;;
64543;SDS011;50936;51.660;5.616;2023-07-09T04:18:24;6.45;;;4.00;;
64543;SDS011;50936;51.660;5.616;2023-07-09T04:20:51;5.80;;;3.78;;
64543;SDS011;50936;51.660;5.616;2023-07-09T04:23:19;5.78;;;3.22;;
64543;SDS011;50936;51.660;5.616;2023-07-09T04:25:46;6.78;;;3.72;;
64543;SDS011;50936;51.660;5.616;2023-07-09T04:28:14;5.63;;;3.40;;
64543;SDS011;50936;51.660;5.616;2023-07-09T04:30:48;6.35;;;3.70;;
64543;SDS011;50936;51.660;5.616;2023-07-09T04:33:17;5.90;;;3.13;;
64543;SDS011;50936;51.660;5.616;2023-07-09T04:35:48;6.43;;;3.85;;
64543;SDS011;50936;51.660;5.616;2023-07-09T04:38:15;5.72;;;3.38;;
64543;SDS011;50936;51.660;5.616;2023-07-09T04:40:42;6.60;;;3.38;;
64543;SDS011;50936;51.660;5.616;2023-07-09T04:43:10;4.82;;;3.00;;
64543;SDS011;50936;51.660;5.616;2023-07-09T04:45:37;7.07;;;3.58;;
64543;SDS011;50936;51.660;5.616;2023-07-09T04:48:04;6.70;;;3.85;;
64543;SDS011;50936;51.660;5.616;2023-07-09T04:50:32;5.65;;;3.42;;
64543;SDS011;50936;51.660;5.616;2023-07-09T04:53:00;5.70;;;3.10;;
64543;SDS011;50936;51.660;5.616;2023-07-09T04:55:27;8.23;;;3.30;;
64543;SDS011;50936;51.660;5.616;2023-07-09T04:57:54;5.65;;;3.65;;
64543;SDS011;50936;51.660;5.616;2023-07-09T05:00:21;5.50;;;3.58;;
64543;SDS011;50936;51.660;5.616;2023-07-09T05:02:50;6.60;;;3.70;;
64543;SDS011;50936;51.660;5.616;2023-07-09T05:05:17;7.35;;;3.92;;
64543;SDS011;50936;51.660;5.616;2023-07-09T05:07:44;5.90;;;3.55;;
64543;SDS011;50936;51.660;5.616;2023-07-09T05:10:11;7.22;;;3.90;;
64543;SDS011;50936;51.660;5.616;2023-07-09T05:12:46;5.85;;;3.50;;
64543;SDS011;50936;51.660;5.616;2023-07-09T05:15:18;6.82;;;3.13;;
64543;SDS011;50936;51.660;5.616;2023-07-09T05:17:47;7.00;;;3.33;;
64543;SDS011;50936;51.660;5.616;2023-07-09T05:20:14;6.13;;;3.60;;
64543;SDS011;50936;51.660;5.616;2023-07-09T05:22:42;5.72;;;3.38;;
64543;SDS011;50936;51.660;5.616;2023-07-09T05:25:09;5.90;;;3.38;;
64543;SDS011;50936;51.660;5.616;2023-07-09T05:27:36;6.32;;;3.35;;
64543;SDS011;50936;51.660;5.616;2023-07-09T05:30:02;6.43;;;3.50;;
64543;SDS011;50936;51.660;5.616;2023-07-09T05:32:31;6.50;;;3.40;;
64543;SDS011;50936;51.660;5.616;2023-07-09T05:34:58;7.75;;;4.03;;
64543;SDS011;50936;51.660;5.616;2023-07-09T05:37:24;5.93;;;3.33;;
64543;SDS011;50936;51.660;5.616;2023-07-09T05:39:51;7.00;;;3.75;;
64543;SDS011;50936;51.660;5.616;2023-07-09T05:42:18;10.73;;;5.15;;
64543;SDS011;50936;51.660;5.616;2023-07-09T05:44:45;15.07;;;5.30;;
64543;SDS011;50936;51.660;5.616;2023-07-09T05:47:12;16.08;;;5.57;;
64543;SDS011;50936;51.660;5.616;2023-07-09T05:49:39;18.80;;;5.43;;
64543;SDS011;50936;51.660;5.616;2023-07-09T05:52:06;17.80;;;5.47;;
64543;SDS011;50936;51.660;5.616;2023-07-09T05:54:34;18.48;;;6.03;;
64543;SDS011;50936;51.660;5.616;2023-07-09T05:57:00;17.50;;;6.40;;
64543;SDS011;50936;51.660;5.616;2023-07-09T05:59:27;13.65;;;5.40;;
64543;SDS011;50936;51.660;5.616;2023-07-09T06:01:54;13.48;;;6.57;;
64543;SDS011;50936;51.660;5.616;2023-07-09T06:04:21;14.30;;;6.03;;
64543;SDS011;50936;51.660;5.616;2023-07-09T06:06:48;17.25;;;6.18;;
64543;SDS011;50936;51.660;5.616;2023-07-09T06:09:14;14.85;;;5.97;;
64543;SDS011;50936;51.660;5.616;2023-07-09T06:11:42;12.57;;;6.28;;
64543;SDS011;50936;51.660;5.616;2023-07-09T06:14:10;15.73;;;6.20;;
64543;SDS011;50936;51.660;5.616;2023-07-09T06:16:37;11.85;;;6.15;;
64543;SDS011;50936;51.660;5.616;2023-07-09T06:19:04;17.50;;;7.00;;
64543;SDS011;50936;51.660;5.616;2023-07-09T06:21:31;12.48;;;5.82;;
64543;SDS011;50936;51.660;5.616;2023-07-09T06:23:58;12.95;;;5.90;;
64543;SDS011;50936;51.660;5.616;2023-07-09T06:26:25;13.02;;;6.22;;
64543;SDS011;50936;51.660;5.616;2023-07-09T06:28:51;11.65;;;6.15;;
64543;SDS011;50936;51.660;5.616;2023-07-09T06:31:18;12.95;;;6.47;;
64543;SDS011;50936;51.660;5.616;2023-07-09T06:33:47;14.68;;;5.97;;
64543;SDS011;50936;51.660;5.616;2023-07-09T06:36:16;15.70;;;5.43;;
64543;SDS011;50936;51.660;5.616;2023-07-09T06:38:45;11.77;;;6.38;;
64543;SDS011;50936;51.660;5.616;2023-07-09T06:41:13;12.82;;;6.15;;
64543;SDS011;50936;51.660;5.616;2023-07-09T06:43:42;12.50;;;6.45;;
64543;SDS011;50936;51.660;5.616;2023-07-09T06:46:13;12.10;;;6.40;;
64543;SDS011;50936;51.660;5.616;2023-07-09T06:48:41;12.40;;;5.88;;
64543;SDS011;50936;51.660;5.616;2023-07-09T06:51:08;13.10;;;6.35;;
64543;SDS011;50936;51.660;5.616;2023-07-09T06:53:35;15.15;;;5.97;;
64543;SDS011;50936;51.660;5.616;2023-07-09T06:56:02;11.27;;;5.82;;
64543;SDS011;50936;51.660;5.616;2023-07-09T06:58:31;12.07;;;6.07;;
64543;SDS011;50936;51.660;5.616;2023-07-09T07:01:00;14.57;;;6.22;;
64543;SDS011;50936;51.660;5.616;2023-07-09T07:03:30;12.98;;;6.50;;
64543;SDS011;50936;51.660;5.616;2023-07-09T07:05:59;12.95;;;6.22;;
64543;SDS011;50936;51.660;5.616;2023-07-09T07:08:26;13.23;;;5.97;;
64543;SDS011;50936;51.660;5.616;2023-07-09T07:10:55;13.27;;;6.20;;
64543;SDS011;50936;51.660;5.616;2023-07-09T07:13:29;13.35;;;6.30;;
64543;SDS011;50936;51.660;5.616;2023-07-09T07:16:05;12.48;;;5.95;;
64543;SDS011;50936;51.660;5.616;2023-07-09T07:18:38;11.35;;;6.07;;
64543;SDS011;50936;51.660;5.616;2023-07-09T07:21:06;12.57;;;6.03;;
64543;SDS011;50936;51.660;5.616;2023-07-09T07:23:33;13.40;;;6.25;;
64543;SDS011;50936;51.660;5.616;2023-07-09T07:26:00;10.43;;;5.60;;
64543;SDS011;50936;51.660;5.616;2023-07-09T07:28:28;11.50;;;5.63;;
64543;SDS011;50936;51.660;5.616;2023-07-09T07:31:01;14.77;;;6.15;;
64543;SDS011;50936;51.660;5.616;2023-07-09T07:33:31;12.25;;;6.05;;
64543;SDS011;50936;51.660;5.616;2023-07-09T07:35:58;15.15;;;6.72;;
64543;SDS011;50936;51.660;5.616;2023-07-09T07:38:31;13.43;;;6.45;;
64543;SDS011;50936;51.660;5.616;2023-07-09T07:40:58;16.17;;;6.97;;
64543;SDS011;50936;51.660;5.616;2023-07-09T07:43:25;14.45;;;6.90;;
64543;SDS011;50936;51.660;5.616;2023-07-09T07:45:52;15.45;;;6.82;;
64543;SDS011;50936;51.660;5.616;2023-07-09T07:48:18;14.32;;;7.05;;
64543;SDS011;50936;51.660;5.616;2023-07-09T07:50:46;16.27;;;6.93;;
64543;SDS011;50936;51.660;5.616;2023-07-09T07:53:14;13.95;;;6.82;;
64543;SDS011;50936;51.660;5.616;2023-07-09T07:55:42;14.48;;;6.55;;
64543;SDS011;50936;51.660;5.616;2023-07-09T07:58:10;14.77;;;6.65;;
64543;SDS011;50936;51.660;5.616;2023-07-09T08:00:39;14.63;;;6.47;;
64543;SDS011;50936;51.660;5.616;2023-07-09T08:03:06;12.77;;;6.72;;
64543;SDS011;50936;51.660;5.616;2023-07-09T08:05:34;12.88;;;6.32;;
64543;SDS011;50936;51.660;5.616;2023-07-09T08:08:01;12.40;;;6.18;;
64543;SDS011;50936;51.660;5.616;2023-07-09T08:10:27;14.98;;;7.18;;
64543;SDS011;50936;51.660;5.616;2023-07-09T08:12:54;13.00;;;6.25;;
64543;SDS011;50936;51.660;5.616;2023-07-09T08:15:26;12.02;;;6.30;;
64543;SDS011;50936;51.660;5.616;2023-07-09T08:17:54;13.85;;;7.13;;
64543;SDS011;50936;51.660;5.616;2023-07-09T08:20:21;13.77;;;6.35;;
64543;SDS011;50936;51.660;5.616;2023-07-09T08:22:48;14.88;;;6.30;;
64543;SDS011;50936;51.660;5.616;2023-07-09T08:25:15;11.75;;;6.30;;
64543;SDS011;50936;51.660;5.616;2023-07-09T08:27:42;14.73;;;6.90;;
64543;SDS011;50936;51.660;5.616;2023-07-09T08:30:09;17.73;;;7.05;;
64543;SDS011;50936;51.660;5.616;2023-07-09T08:32:36;13.40;;;6.60;;
64543;SDS011;50936;51.660;5.616;2023-07-09T08:35:03;14.02;;;6.80;;
64543;SDS011;50936;51.660;5.616;2023-07-09T08:37:51;12.18;;;6.25;;
64543;SDS011;50936;51.660;5.616;2023-07-09T08:40:17;12.23;;;6.18;;
64543;SDS011;50936;51.660;5.616;2023-07-09T08:42:46;12.73;;;5.97;;
64543;SDS011;50936;51.660;5.616;2023-07-09T08:45:46;13.43;;;6.30;;
64543;SDS011;50936;51.660;5.616;2023-07-09T08:48:29;12.73;;;6.57;;
64543;SDS011;50936;51.660;5.616;2023-07-09T08:51:03;14.85;;;6.75;;
64543;SDS011;50936;51.660;5.616;2023-07-09T08:53:43;15.55;;;6.50;;
64543;SDS011;50936;51.660;5.616;2023-07-09T08:56:23;13.60;;;6.88;;
64543;SDS011;50936;51.660;5.616;2023-07-09T08:58:53;10.65;;;5.75;;
64543;SDS011;50936;51.660;5.616;2023-07-09T09:01:26;9.82;;;5.80;;
64543;SDS011;50936;51.660;5.616;2023-07-09T09:04:03;14.93;;;6.22;;
64543;SDS011;50936;51.660;5.616;2023-07-09T09:06:44;11.82;;;6.10;;
64543;SDS011;50936;51.660;5.616;2023-07-09T09:09:40;14.00;;;6.07;;
64543;SDS011;50936;51.660;5.616;2023-07-09T09:12:21;11.20;;;6.18;;
64543;SDS011;50936;51.660;5.616;2023-07-09T09:15:26;9.35;;;5.63;;
64543;SDS011;50936;51.660;5.616;2023-07-09T09:20:57;10.18;;;5.70;;
64543;SDS011;50936;51.660;5.616;2023-07-09T09:23:44;11.90;;;6.07;;
64543;SDS011;50936;51.660;5.616;2023-07-09T09:26:23;11.65;;;5.93;;
64543;SDS011;50936;51.660;5.616;2023-07-09T09:28:57;14.32;;;5.82;;
64543;SDS011;50936;51.660;5.616;2023-07-09T09:31:27;13.68;;;6.10;;
64543;SDS011;50936;51.660;5.616;2023-07-09T09:33:56;10.90;;;5.60;;
64543;SDS011;50936;51.660;5.616;2023-07-09T09:36:25;12.10;;;5.65;;
64543;SDS011;50936;51.660;5.616;2023-07-09T09:38:54;10.40;;;5.72;;
64543;SDS011;50936;51.660;5.616;2023-07-09T09:41:22;13.63;;;5.82;;
64543;SDS011;50936;51.660;5.616;2023-07-09T09:43:53;13.52;;;5.95;;
64543;SDS011;50936;51.660;5.616;2023-07-09T09:46:22;11.38;;;5.55;;
64543;SDS011;50936;51.660;5.616;2023-07-09T09:48:54;10.95;;;5.93;;
64543;SDS011;50936;51.660;5.616;2023-07-09T09:51:27;12.60;;;6.80;;
64543;SDS011;50936;51.660;5.616;2023-07-09T09:53:58;12.63;;;5.70;;
64543;SDS011;50936;51.660;5.616;2023-07-09T09:56:34;10.80;;;5.22;;
64543;SDS011;50936;51.660;5.616;2023-07-09T09:59:04;13.13;;;6.25;;
64543;SDS011;50936;51.660;5.616;2023-07-09T10:01:33;12.98;;;6.30;;
64543;SDS011;50936;51.660;5.616;2023-07-09T10:04:04;11.80;;;6.32;;
64543;SDS011;50936;51.660;5.616;2023-07-09T10:06:36;13.10;;;6.60;;
64543;SDS011;50936;51.660;5.616;2023-07-09T10:14:33;12.90;;;6.30;;
64543;SDS011;50936;51.660;5.616;2023-07-09T10:20:29;14.85;;;6.45;;
64543;SDS011;50936;51.660;5.616;2023-07-09T10:25:56;11.52;;;5.55;;
64543;SDS011;50936;51.660;5.616;2023-07-09T10:29:43;12.48;;;6.15;;
64543;SDS011;50936;51.660;5.616;2023-07-09T10:32:06;10.32;;;5.75;;
64543;SDS011;50936;51.660;5.616;2023-07-09T10:34:56;11.70;;;5.70;;
64543;SDS011;50936;51.660;5.616;2023-07-09T10:37:40;10.40;;;6.15;;
64543;SDS011;50936;51.660;5.616;2023-07-09T10:40:19;11.90;;;6.00;;
64543;SDS011;50936;51.660;5.616;2023-07-09T10:42:58;9.30;;;5.70;;
64543;SDS011;50936;51.660;5.616;2023-07-09T10:45:48;12.45;;;5.90;;
64543;SDS011;50936;51.660;5.616;2023-07-09T10:48:31;10.45;;;5.57;;
64543;SDS011;50936;51.660;5.616;2023-07-09T10:51:03;11.68;;;5.72;;
64543;SDS011;50936;51.660;5.616;2023-07-09T10:54:29;12.32;;;6.15;;
64543;SDS011;50936;51.660;5.616;2023-07-09T10:57:14;12.13;;;6.47;;
64543;SDS011;50936;51.660;5.616;2023-07-09T10:59:55;11.60;;;5.68;;
64543;SDS011;50936;51.660;5.616;2023-07-09T11:02:25;12.38;;;5.50;;
64543;SDS011;50936;51.660;5.616;2023-07-09T11:05:03;11.82;;;5.90;;
64543;SDS011;50936;51.660;5.616;2023-07-09T11:16:12;10.43;;;5.32;;
64543;SDS011;50936;51.660;5.616;2023-07-09T11:18:54;10.23;;;4.85;;
64543;SDS011;50936;51.660;5.616;2023-07-09T11:21:29;10.05;;;5.10;;
64543;SDS011;50936;51.660;5.616;2023-07-09T11:23:57;8.48;;;4.93;;
64543;SDS011;50936;51.660;5.616;2023-07-09T11:26:30;10.15;;;5.43;;
64543;SDS011;50936;51.660;5.616;2023-07-09T11:31:34;10.02;;;5.05;;
64543;SDS011;50936;51.660;5.616;2023-07-09T11:39:31;13.27;;;5.43;;
64543;SDS011;50936;51.660;5.616;2023-07-09T11:47:40;12.43;;;5.78;;
64543;SDS011;50936;51.660;5.616;2023-07-09T11:50:24;15.15;;;6.18;;
64543;SDS011;50936;51.660;5.616;2023-07-09T11:53:00;12.63;;;5.63;;
64543;SDS011;50936;51.660;5.616;2023-07-09T11:55:43;12.95;;;5.85;;
64543;SDS011;50936;51.660;5.616;2023-07-09T11:58:17;12.50;;;5.35;;
64543;SDS011;50936;51.660;5.616;2023-07-09T12:00:46;13.98;;;6.43;;
64543;SDS011;50936;51.660;5.616;2023-07-09T12:03:33;12.07;;;6.20;;
64543;SDS011;50936;51.660;5.616;2023-07-09T12:06:07;11.35;;;5.70;;
64543;SDS011;50936;51.660;5.616;2023-07-09T12:08:50;10.32;;;5.72;;
64543;SDS011;50936;51.660;5.616;2023-07-09T12:13:54;12.73;;;5.93;;
64543;SDS011;50936;51.660;5.616;2023-07-09T12:16:33;11.48;;;5.32;;
64543;SDS011;50936;51.660;5.616;2023-07-09T12:19:06;11.05;;;5.68;;
64543;SDS011;50936;51.660;5.616;2023-07-09T12:21:37;13.38;;;5.45;;
64543;SDS011;50936;51.660;5.616;2023-07-09T12:24:30;10.43;;;5.28;;
64543;SDS011;50936;51.660;5.616;2023-07-09T12:27:15;11.60;;;5.13;;
64543;SDS011;50936;51.660;5.616;2023-07-09T12:29:47;11.63;;;5.75;;
64543;SDS011;50936;51.660;5.616;2023-07-09T12:32:16;14.63;;;6.43;;
64543;SDS011;50936;51.660;5.616;2023-07-09T12:34:49;12.82;;;5.63;;
64543;SDS011;50936;51.660;5.616;2023-07-09T12:37:19;12.70;;;5.65;;
64543;SDS011;50936;51.660;5.616;2023-07-09T12:39:49;12.15;;;5.88;;
64543;SDS011;50936;51.660;5.616;2023-07-09T12:42:20;13.35;;;5.90;;
64543;SDS011;50936;51.660;5.616;2023-07-09T12:44:56;13.27;;;5.72;;
64543;SDS011;50936;51.660;5.616;2023-07-09T12:47:24;10.38;;;5.25;;
64543;SDS011;50936;51.660;5.616;2023-07-09T12:49:59;11.70;;;5.40;;
64543;SDS011;50936;51.660;5.616;2023-07-09T12:52:38;11.38;;;5.55;;
64543;SDS011;50936;51.660;5.616;2023-07-09T12:55:21;12.18;;;5.78;;
64543;SDS011;50936;51.660;5.616;2023-07-09T13:00:22;12.77;;;5.35;;
64543;SDS011;50936;51.660;5.616;2023-07-09T13:02:57;12.02;;;6.15;;
64543;SDS011;50936;51.660;5.616;2023-07-09T13:05:26;13.23;;;6.35;;
64543;SDS011;50936;51.660;5.616;2023-07-09T13:07:54;12.85;;;6.55;;
64543;SDS011;50936;51.660;5.616;2023-07-09T13:10:27;12.00;;;5.68;;
64543;SDS011;50936;51.660;5.616;2023-07-09T13:13:00;12.52;;;5.82;;
64543;SDS011;50936;51.660;5.616;2023-07-09T13:15:31;13.60;;;6.10;;
64543;SDS011;50936;51.660;5.616;2023-07-09T13:18:10;11.48;;;5.78;;
64543;SDS011;50936;51.660;5.616;2023-07-09T13:20:40;10.68;;;5.45;;
64543;SDS011;50936;51.660;5.616;2023-07-09T13:23:11;12.00;;;6.28;;
64543;SDS011;50936;51.660;5.616;2023-07-09T13:25:42;11.82;;;6.13;;
64543;SDS011;50936;51.660;5.616;2023-07-09T13:28:18;11.23;;;5.50;;
64543;SDS011;50936;51.660;5.616;2023-07-09T13:30:47;9.65;;;5.65;;
64543;SDS011;50936;51.660;5.616;2023-07-09T13:33:17;11.20;;;5.63;;
64543;SDS011;50936;51.660;5.616;2023-07-09T13:35:45;13.30;;;5.80;;
64543;SDS011;50936;51.660;5.616;2023-07-09T13:38:13;11.52;;;6.00;;
64543;SDS011;50936;51.660;5.616;2023-07-09T13:40:43;15.50;;;6.57;;
64543;SDS011;50936;51.660;5.616;2023-07-09T13:43:14;11.15;;;5.90;;
64543;SDS011;50936;51.660;5.616;2023-07-09T13:45:59;12.20;;;6.15;;
64543;SDS011;50936;51.660;5.616;2023-07-09T13:48:32;11.15;;;5.60;;
64543;SDS011;50936;51.660;5.616;2023-07-09T13:51:05;12.00;;;5.95;;
64543;SDS011;50936;51.660;5.616;2023-07-09T13:53:42;13.13;;;5.93;;
64543;SDS011;50936;51.660;5.616;2023-07-09T13:56:10;12.68;;;5.93;;
64543;SDS011;50936;51.660;5.616;2023-07-09T13:58:36;13.70;;;6.13;;
64543;SDS011;50936;51.660;5.616;2023-07-09T14:01:15;14.02;;;6.88;;
64543;SDS011;50936;51.660;5.616;2023-07-09T14:03:48;16.42;;;6.75;;
64543;SDS011;50936;51.660;5.616;2023-07-09T14:06:15;11.00;;;5.78;;
64543;SDS011;50936;51.660;5.616;2023-07-09T14:08:44;10.90;;;6.00;;
64543;SDS011;50936;51.660;5.616;2023-07-09T14:11:12;11.43;;;6.05;;
64543;SDS011;50936;51.660;5.616;2023-07-09T14:13:43;13.50;;;6.75;;
64543;SDS011;50936;51.660;5.616;2023-07-09T14:16:13;10.93;;;6.20;;
64543;SDS011;50936;51.660;5.616;2023-07-09T14:18:41;12.05;;;6.60;;
64543;SDS011;50936;51.660;5.616;2023-07-09T14:21:12;11.95;;;6.05;;
64543;SDS011;50936;51.660;5.616;2023-07-09T14:23:41;13.63;;;6.20;;
64543;SDS011;50936;51.660;5.616;2023-07-09T14:26:12;12.98;;;6.53;;
64543;SDS011;50936;51.660;5.616;2023-07-09T14:28:39;12.27;;;6.55;;
64543;SDS011;50936;51.660;5.616;2023-07-09T14:31:12;15.07;;;7.13;;
64543;SDS011;50936;51.660;5.616;2023-07-09T14:33:52;13.43;;;6.20;;
64543;SDS011;50936;51.660;5.616;2023-07-09T14:36:21;13.60;;;6.82;;
64543;SDS011;50936;51.660;5.616;2023-07-09T14:38:48;11.40;;;6.03;;
64543;SDS011;50936;51.660;5.616;2023-07-09T14:41:21;10.73;;;5.85;;
64543;SDS011;50936;51.660;5.616;2023-07-09T14:43:53;13.68;;;6.45;;
64543;SDS011;50936;51.660;5.616;2023-07-09T14:46:24;11.90;;;6.03;;
64543;SDS011;50936;51.660;5.616;2023-07-09T14:48:51;14.27;;;6.80;;
64543;SDS011;50936;51.660;5.616;2023-07-09T14:51:18;13.98;;;6.28;;
64543;SDS011;50936;51.660;5.616;2023-07-09T14:53:46;12.50;;;7.03;;
64543;SDS011;50936;51.660;5.616;2023-07-09T14:56:14;13.55;;;6.53;;
64543;SDS011;50936;51.660;5.616;2023-07-09T14:58:41;11.35;;;5.68;;
64543;SDS011;50936;51.660;5.616;2023-07-09T15:01:12;10.73;;;5.95;;
64543;SDS011;50936;51.660;5.616;2023-07-09T15:03:41;12.35;;;6.75;;
64543;SDS011;50936;51.660;5.616;2023-07-09T15:06:08;11.23;;;5.85;;
64543;SDS011;50936;51.660;5.616;2023-07-09T15:08:35;12.43;;;6.00;;
64543;SDS011;50936;51.660;5.616;2023-07-09T15:11:03;12.85;;;6.53;;
64543;SDS011;50936;51.660;5.616;2023-07-09T15:13:32;12.07;;;6.28;;
64543;SDS011;50936;51.660;5.616;2023-07-09T15:16:03;9.57;;;5.93;;
64543;SDS011;50936;51.660;5.616;2023-07-09T15:18:31;10.98;;;5.93;;
64543;SDS011;50936;51.660;5.616;2023-07-09T15:21:03;11.07;;;6.10;;
64543;SDS011;50936;51.660;5.616;2023-07-09T15:23:39;10.57;;;5.95;;
64543;SDS011;50936;51.660;5.616;2023-07-09T15:26:14;11.07;;;6.00;;
64543;SDS011;50936;51.660;5.616;2023-07-09T15:28:42;11.57;;;6.43;;
64543;SDS011;50936;51.660;5.616;2023-07-09T15:31:10;11.60;;;5.97;;
64543;SDS011;50936;51.660;5.616;2023-07-09T15:33:37;11.40;;;6.10;;
64543;SDS011;50936;51.660;5.616;2023-07-09T15:36:08;12.13;;;6.45;;
64543;SDS011;50936;51.660;5.616;2023-07-09T15:38:38;10.93;;;6.03;;
64543;SDS011;50936;51.660;5.616;2023-07-09T15:41:13;10.57;;;6.30;;
64543;SDS011;50936;51.660;5.616;2023-07-09T15:43:42;12.63;;;6.63;;
64543;SDS011;50936;51.660;5.616;2023-07-09T15:46:15;12.20;;;6.50;;
64543;SDS011;50936;51.660;5.616;2023-07-09T15:48:46;10.40;;;5.97;;
64543;SDS011;50936;51.660;5.616;2023-07-09T15:51:16;11.48;;;5.75;;